Niagara, Wisconsin
Current Conditions -  °F | °C
As of 1:12 PM on Sunday 21 Dec 2014 (Local Time) from KIMT Reporting Station
Haze Haze  
Wind Chill: 22°   Ceiling: 400
Heat Index: 30°   Visibility: 2mi
Dew Point: 28°   Wind: 8mph
Humidity: 92%   Direction: 140°SE
Pressure: 29.97"   Gusts: NA
Location:  45.77°N, 87.99°W
Report Text: KIMT 211912Z AUTO 14007KT 2SM BR OVC004 M01/M02 A2997 RMK AO2 T10111022
Loading
Personal Weather Stations






























Interactive Weather Map New forecast layout! Learn more

10-Day Weather Forecast

Advertisements
Track Severe Weather on mobile